Time,TemperatureF,DewpointF,PressureIn,WindDirection,WindDirectionDegrees,WindSpeedMPH,WindSpeedGustMPH,Humidity,HourlyPrecipIn,Conditions,Clouds,dailyrainin,SolarRadiationWatts/m^2,SoftwareType,DateUTC
2013-03-13 00:00:00,37.0,32.0,29.84,WSW,255,1.0,-999.0,81,-99.99,,,-99.99,0.000000,,2013-03-13 04:00:00,
2013-03-13 00:53:00,37.0,32.0,29.84,WSW,255,1.0,-999.0,81,-99.99,,,-99.99,0.000000,,2013-03-13 04:53:00,
2013-03-13 04:00:00,36.0,26.0,29.83,WNW,293,2.0,-999.0,69,-99.99,,,-99.99,0.000000,,2013-03-13 08:00:00,
2013-03-13 04:54:00,36.0,26.0,29.83,WNW,293,2.0,-999.0,69,-99.99,,,-99.99,0.000000,,2013-03-13 08:54:00,
2013-03-13 05:00:00,35.0,27.0,29.83,West,266,2.0,-999.0,74,-99.99,,,-99.99,0.000000,,2013-03-13 09:00:00,
2013-03-13 05:52:00,35.0,27.0,29.83,West,266,2.0,-999.0,74,-99.99,,,-99.99,0.000000,,2013-03-13 09:52:00,
2013-03-13 06:00:00,31.0,27.0,29.84,SW,234,1.0,-999.0,84,-99.99,,,-99.99,0.000000,,2013-03-13 10:00:00,
2013-03-13 06:52:00,31.0,27.0,29.84,SW,234,1.0,-999.0,84,-99.99,,,-99.99,0.000000,,2013-03-13 10:52:00,
2013-03-13 07:00:00,30.0,27.0,29.84,SW,224,2.0,-999.0,89,-99.99,,,-99.99,0.000000,,2013-03-13 11:00:00,
2013-03-13 07:53:00,30.0,27.0,29.84,SW,224,2.0,-999.0,89,-99.99,,,-99.99,0.000000,,2013-03-13 11:53:00,
2013-03-13 08:00:00,31.0,27.0,29.86,SW,230,2.0,-999.0,85,-99.99,,,-99.99,12.450000,,2013-03-13 12:00:00,
2013-03-13 08:53:00,31.0,27.0,29.86,SW,230,2.0,-999.0,85,-99.99,,,-99.99,12.450000,,2013-03-13 12:53:00,
2013-03-13 09:00:00,37.0,28.0,29.86,SW,225,1.0,-999.0,68,-99.99,,,-99.99,145.259995,,2013-03-13 13:00:00,
2013-03-13 09:53:00,37.0,28.0,29.86,SW,225,1.0,-999.0,68,-99.99,,,-99.99,145.259995,,2013-03-13 13:53:00,
2013-03-13 10:00:00,45.0,29.0,29.85,SSE,165,4.0,-999.0,55,-99.99,,,-99.99,341.529999,,2013-03-13 14:00:00,
2013-03-13 10:53:00,45.0,29.0,29.85,SSE,165,4.0,-999.0,55,-99.99,,,-99.99,341.529999,,2013-03-13 14:53:00,
2013-03-13 11:00:00,46.0,26.0,29.84,SW,218,7.0,-999.0,45,-99.99,,,-99.99,467.079987,,2013-03-13 15:00:00,
2013-03-13 11:53:00,46.0,26.0,29.84,SW,218,7.0,-999.0,45,-99.99,,,-99.99,467.079987,,2013-03-13 15:53:00,
2013-03-13 12:00:00,47.0,19.0,29.83,West,263,9.0,-999.0,33,-99.99,,,-99.99,468.429993,,2013-03-13 16:00:00,
2013-03-13 12:52:00,47.0,19.0,29.83,West,263,9.0,-999.0,33,-99.99,,,-99.99,468.429993,,2013-03-13 16:52:00,
2013-03-13 13:00:00,46.0,26.0,29.83,WNW,286,11.0,-999.0,45,-99.99,,,-99.99,281.950012,,2013-03-13 17:00:00,
2013-03-13 13:53:00,46.0,26.0,29.83,WNW,286,11.0,-999.0,45,-99.99,,,-99.99,281.950012,,2013-03-13 17:53:00,
2013-03-13 14:00:00,46.0,18.0,29.81,West,272,13.0,-999.0,32,-99.99,,,-99.99,475.920013,,2013-03-13 18:00:00,
2013-03-13 17:00:00,47.0,18.0,29.80,WNW,284,11.0,-999.0,31,-99.99,,,-99.99,261.119995,,2013-03-13 21:00:00,
2013-03-13 17:52:00,47.0,18.0,29.80,WNW,284,11.0,-999.0,31,-99.99,,,-99.99,261.119995,,2013-03-13 21:52:00,
2013-03-13 21:00:00,37.0,12.0,29.93,WNW,284,9.0,-999.0,34,-99.99,,,-99.99,0.010000,,2013-03-14 01:00:00,
2013-03-13 21:53:00,37.0,12.0,29.93,WNW,284,9.0,-999.0,34,-99.99,,,-99.99,0.010000,,2013-03-14 01:53:00,
2013-03-13 23:53:00,34.0,14.0,29.96,NW,307,3.0,-999.0,44,-99.99,,,-99.99,0.000000,,2013-03-14 03:53:00,